createdAt,value
2022-08-10T00:03:14.184Z,53.34
2022-08-10T00:08:23.782Z,53.39
2022-08-10T00:13:16.172Z,53.61
2022-08-10T00:18:35.168Z,53.69
2022-08-10T00:23:18.234Z,53.81
2022-08-10T00:28:18.237Z,53.95
2022-08-10T00:33:18.307Z,54.02
2022-08-10T00:38:18.195Z,53.99
2022-08-10T00:43:23.396Z,54.04
2022-08-10T00:48:20.223Z,54.23
2022-08-10T00:53:20.314Z,54.17
2022-08-10T00:58:20.287Z,54.19
2022-08-10T01:04:36.599Z,54.23
2022-08-10T01:08:22.264Z,54.33
2022-08-10T01:13:22.306Z,54.45
2022-08-10T01:18:22.429Z,54.46
2022-08-10T01:23:22.350Z,54.59
2022-08-10T01:28:22.338Z,54.65
2022-08-10T01:33:31.769Z,54.60
2022-08-10T01:38:24.287Z,54.76
2022-08-10T01:43:24.295Z,54.85
2022-08-10T01:48:31.342Z,54.90
2022-08-10T01:53:40.132Z,54.89
2022-08-10T01:58:33.331Z,55.26
2022-08-10T02:03:33.352Z,55.28
2022-08-10T02:08:33.289Z,55.26
2022-08-10T02:13:33.313Z,55.52
2022-08-10T02:18:33.351Z,55.49
2022-08-10T02:23:33.320Z,55.65
2022-08-10T02:28:34.192Z,55.69
2022-08-10T02:33:37.369Z,55.96
2022-08-10T02:38:58.526Z,55.98
2022-08-10T02:45:25.639Z,56.02
2022-08-10T02:48:40.310Z,56.21
2022-08-10T02:53:55.459Z,56.48
2022-08-10T02:58:42.338Z,56.85
2022-08-10T03:03:42.385Z,57.15
2022-08-10T03:08:42.424Z,57.49
2022-08-10T03:13:42.315Z,57.70
2022-08-10T03:18:42.410Z,57.91
2022-08-10T03:23:42.462Z,58.35
2022-08-10T03:28:42.351Z,58.53
2022-08-10T03:33:42.393Z,59.13
2022-08-10T03:38:44.320Z,59.28
2022-08-10T03:43:44.911Z,59.59
2022-08-10T03:48:49.757Z,59.93
2022-08-10T03:54:04.440Z,60.12
2022-08-10T03:58:49.433Z,60.15
2022-08-10T04:03:49.463Z,60.42
2022-08-10T04:08:51.485Z,60.68
2022-08-10T04:13:51.354Z,61.40
2022-08-10T04:18:51.421Z,62.05
2022-08-10T04:23:53.329Z,62.22
2022-08-10T04:28:53.464Z,62.39
2022-08-10T04:33:56.469Z,62.60
2022-08-10T04:38:56.401Z,62.81
2022-08-10T04:43:59.354Z,62.70
2022-08-10T04:49:01.445Z,62.63
2022-08-10T04:54:04.826Z,62.62
2022-08-10T04:59:04.687Z,62.95
2022-08-10T05:04:36.445Z,63.37
2022-08-10T05:09:06.415Z,64.09
2022-08-10T05:14:06.451Z,63.69
2022-08-10T05:19:06.490Z,63.54
2022-08-10T05:24:06.396Z,63.06
2022-08-10T05:29:06.485Z,62.77
2022-08-10T05:34:06.488Z,62.48
2022-08-10T05:39:08.519Z,62.17
2022-08-10T05:44:08.505Z,61.89
2022-08-10T05:49:08.435Z,61.74
2022-08-10T05:54:27.828Z,61.55
2022-08-10T06:00:30.915Z,61.56
2022-08-10T06:04:29.530Z,61.14
2022-08-10T06:09:30.736Z,60.60
2022-08-10T06:14:53.067Z,58.31
2022-08-10T06:19:51.438Z,56.67
2022-08-10T06:25:23.133Z,54.33
2022-08-10T06:29:53.491Z,53.41
2022-08-10T06:34:53.484Z,49.69
2022-08-10T06:39:53.489Z,45.78
2022-08-10T06:44:53.476Z,42.71
2022-08-10T06:49:53.503Z,40.06
2022-08-10T06:54:55.532Z,38.59
2022-08-10T06:59:55.550Z,36.55
2022-08-10T07:04:55.574Z,34.42
2022-08-10T07:09:55.757Z,32.24
2022-08-10T07:14:55.546Z,30.47
2022-08-10T07:19:55.585Z,28.39
2022-08-10T07:24:55.571Z,24.91
2022-08-10T07:29:55.569Z,23.41
2022-08-10T07:34:55.644Z,23.50
2022-08-10T07:39:57.987Z,22.68
2022-08-10T07:44:57.659Z,21.42
2022-08-10T07:49:57.627Z,21.26
2022-08-10T07:54:57.553Z,19.29
2022-08-10T07:59:57.620Z,18.60
2022-08-10T08:04:57.624Z,18.30
2022-08-10T08:09:59.199Z,18.35
2022-08-10T08:14:59.655Z,18.05
2022-08-10T08:19:59.573Z,17.09
2022-08-10T08:25:01.730Z,16.16
2022-08-10T08:30:01.649Z,16.39
2022-08-10T08:35:01.633Z,15.99
2022-08-10T08:40:01.668Z,15.98
2022-08-10T08:45:01.594Z,15.77
2022-08-10T08:50:08.740Z,15.91
2022-08-10T08:55:03.588Z,15.67
2022-08-10T09:00:04.237Z,15.41
2022-08-10T09:05:04.708Z,15.46
2022-08-10T09:10:04.912Z,15.41
2022-08-10T09:15:04.698Z,15.14
2022-08-10T09:20:05.183Z,14.79
2022-08-10T09:25:04.652Z,14.26
2022-08-10T09:30:04.716Z,14.14
2022-08-10T09:36:20.699Z,13.31
2022-08-10T09:40:59.096Z,12.76
2022-08-10T09:45:09.456Z,12.21
2022-08-10T09:50:09.718Z,12.52
2022-08-10T09:55:09.680Z,12.44
2022-08-10T10:00:10.951Z,12.82
2022-08-10T10:05:11.016Z,12.85
2022-08-10T10:10:10.718Z,12.59
2022-08-10T10:15:25.297Z,12.67
2022-08-10T10:20:25.379Z,12.81
2022-08-10T10:25:49.777Z,13.11
2022-08-10T10:30:28.804Z,13.48
2022-08-10T10:35:28.672Z,13.83
2022-08-10T10:40:28.744Z,14.01
2022-08-10T10:45:28.679Z,14.76
2022-08-10T10:50:28.812Z,15.50
2022-08-10T10:55:28.769Z,16.57
2022-08-10T11:00:28.828Z,17.81
2022-08-10T11:05:28.698Z,18.69
2022-08-10T11:10:32.371Z,19.34
2022-08-10T11:15:30.738Z,19.98
2022-08-10T11:20:32.674Z,20.38
2022-08-10T11:25:33.023Z,21.13
2022-08-10T11:30:32.842Z,22.07
2022-08-10T11:35:34.998Z,22.65
2022-08-10T11:40:34.756Z,23.24
2022-08-10T11:45:36.204Z,23.90
2022-08-10T11:50:35.771Z,24.92
2022-08-10T11:55:35.734Z,25.14
2022-08-10T12:00:35.888Z,25.61
2022-08-10T12:05:51.849Z,26.04
2022-08-10T12:10:40.814Z,26.90
2022-08-10T12:15:39.866Z,27.36
2022-08-10T12:20:39.772Z,27.37
2022-08-10T12:25:56.014Z,27.26
2022-08-10T12:30:41.827Z,27.59
2022-08-10T12:35:56.057Z,28.10
2022-08-10T12:40:43.839Z,28.40
2022-08-10T12:45:43.898Z,28.50
2022-08-10T12:50:43.883Z,28.50
2022-08-10T12:55:43.907Z,28.41
2022-08-10T13:01:05.794Z,28.89
2022-08-10T13:06:01.991Z,28.86
2022-08-10T13:10:48.292Z,29.54
2022-08-10T13:15:50.507Z,30.21
2022-08-10T13:20:49.828Z,30.56
2022-08-10T13:25:49.884Z,30.19
2022-08-10T13:30:50.795Z,30.34
2022-08-10T13:35:57.753Z,30.51
2022-08-10T13:40:52.959Z,30.49
2022-08-10T13:45:52.904Z,31.09
2022-08-10T13:50:53.301Z,31.13
2022-08-10T13:55:54.093Z,31.00
2022-08-10T14:00:55.045Z,31.27
2022-08-10T14:05:54.919Z,31.23
2022-08-10T14:11:09.084Z,31.90
2022-08-10T14:15:56.874Z,31.39
2022-08-10T14:20:56.877Z,31.42
2022-08-10T14:25:56.906Z,31.74
2022-08-10T14:30:57.049Z,31.69
2022-08-10T14:36:21.751Z,31.80
2022-08-10T14:40:59.178Z,31.81
2022-08-10T14:46:01.667Z,31.46
2022-08-10T14:51:00.944Z,31.44
2022-08-10T14:56:02.249Z,31.27
2022-08-10T15:01:02.207Z,31.34
2022-08-10T15:06:03.385Z,31.49
2022-08-10T15:11:04.982Z,31.30
2022-08-10T15:16:13.598Z,31.51
2022-08-10T15:21:17.028Z,31.46
2022-08-10T15:26:08.970Z,31.19
2022-08-10T15:31:11.110Z,31.02
2022-08-10T15:36:36.643Z,30.98
2022-08-10T15:41:57.240Z,30.59
2022-08-10T15:46:38.990Z,30.75
2022-08-10T15:51:52.847Z,31.13
2022-08-10T15:56:41.070Z,30.75
2022-08-10T16:02:14.620Z,31.04
2022-08-10T16:06:43.030Z,30.86
2022-08-10T16:11:45.088Z,30.65
2022-08-10T16:16:45.082Z,30.56
2022-08-10T16:21:45.088Z,30.83
2022-08-10T16:26:45.193Z,31.06
2022-08-10T16:31:45.107Z,30.94
2022-08-10T16:36:48.038Z,31.38
2022-08-10T16:42:04.155Z,31.26
2022-08-10T16:46:50.010Z,31.32
2022-08-10T16:51:53.082Z,31.45
2022-08-10T16:56:56.105Z,31.52
2022-08-10T17:01:56.159Z,31.55
2022-08-10T17:06:56.789Z,31.09
2022-08-10T17:11:57.807Z,31.27
2022-08-10T17:16:59.780Z,31.66
2022-08-10T17:22:00.057Z,31.87
2022-08-10T17:27:02.106Z,31.76
2022-08-10T17:32:02.130Z,32.03
2022-08-10T17:37:02.089Z,32.20
2022-08-10T17:42:02.158Z,32.60
2022-08-10T17:47:11.003Z,32.74
2022-08-10T17:52:04.830Z,33.01
2022-08-10T17:57:05.127Z,33.36
2022-08-10T18:02:05.307Z,33.50
2022-08-10T18:07:05.090Z,33.67
2022-08-10T18:12:10.108Z,33.94
2022-08-10T18:17:07.134Z,34.00
2022-08-10T18:22:07.098Z,34.23
2022-08-10T18:27:07.218Z,34.52
2022-08-10T18:32:07.222Z,34.79
2022-08-10T18:37:07.130Z,34.93
2022-08-10T18:42:07.190Z,35.25
2022-08-10T18:47:07.354Z,35.47
2022-08-10T18:52:07.147Z,35.73
2022-08-10T18:57:07.207Z,35.95
2022-08-10T19:02:07.864Z,36.13
2022-08-10T19:07:08.189Z,36.30
2022-08-10T19:12:08.222Z,36.36
2022-08-10T19:17:10.234Z,36.56
2022-08-10T19:22:10.145Z,36.89
2022-08-10T19:27:10.250Z,37.06
2022-08-10T19:32:10.204Z,37.40
2022-08-10T19:37:10.224Z,37.57
2022-08-10T19:42:12.386Z,37.79
2022-08-10T19:47:12.288Z,37.97
2022-08-10T19:52:13.185Z,38.21
2022-08-10T19:57:13.347Z,38.32
2022-08-10T20:02:13.271Z,38.39
2022-08-10T20:07:13.287Z,38.25
2022-08-10T20:12:13.250Z,38.15
2022-08-10T20:17:13.293Z,38.20
2022-08-10T20:22:13.263Z,38.29
2022-08-10T20:28:00.754Z,38.28
2022-08-10T20:32:15.242Z,38.46
2022-08-10T20:37:41.046Z,38.58
2022-08-10T20:42:17.258Z,39.12
2022-08-10T20:47:17.628Z,39.32
2022-08-10T20:52:17.233Z,39.64
2022-08-10T20:57:56.809Z,39.65
2022-08-10T21:02:22.315Z,40.01
2022-08-10T21:07:43.977Z,40.27
2022-08-10T21:12:23.234Z,40.61
2022-08-10T21:17:23.239Z,40.70
2022-08-10T21:22:25.005Z,41.05
2022-08-10T21:27:27.195Z,41.09
2022-08-10T21:32:25.804Z,41.26
2022-08-10T21:37:24.867Z,41.34
2022-08-10T21:42:44.646Z,41.42
2022-08-10T21:48:17.725Z,41.57
2022-08-10T21:53:22.723Z,41.69
2022-08-10T21:58:42.653Z,41.91
2022-08-10T22:04:01.566Z,42.06
2022-08-10T22:09:20.702Z,42.82
2022-08-10T22:14:38.604Z,43.30
2022-08-10T22:19:58.571Z,43.52
2022-08-10T22:25:17.418Z,43.79
2022-08-10T22:30:35.844Z,43.90
2022-08-10T22:35:54.725Z,43.92
2022-08-10T22:41:12.699Z,44.04
2022-08-10T22:46:30.836Z,44.30
2022-08-10T22:51:30.365Z,44.19
2022-08-10T22:56:48.700Z,44.37
2022-08-10T23:02:07.342Z,44.61
2022-08-10T23:06:52.288Z,44.65
2022-08-10T23:11:52.491Z,44.69
2022-08-10T23:17:10.800Z,44.88
2022-08-10T23:22:10.360Z,45.06
2022-08-10T23:27:13.193Z,45.23
2022-08-10T23:32:12.428Z,45.52
2022-08-10T23:37:12.356Z,45.62
2022-08-10T23:42:12.396Z,45.71
2022-08-10T23:47:12.426Z,45.98
2022-08-10T23:52:12.358Z,46.44
2022-08-10T23:57:12.409Z,46.94
